sensor_id;sensor_type;location;lat;lon;timestamp;temperature;humidity
23335;DHT22;11839;48.598;8.870;2022-12-18T00:02:13;-8.60;97.90
23335;DHT22;11839;48.598;8.870;2022-12-18T00:04:40;-8.90;97.90
23335;DHT22;11839;48.598;8.870;2022-12-18T00:07:06;-9.20;98.70
23335;DHT22;11839;48.598;8.870;2022-12-18T00:09:33;-9.30;99.20
23335;DHT22;11839;48.598;8.870;2022-12-18T00:12:00;-9.10;99.90
23335;DHT22;11839;48.598;8.870;2022-12-18T00:14:27;-9.40;98.90
23335;DHT22;11839;48.598;8.870;2022-12-18T00:16:55;-9.50;98.80
23335;DHT22;11839;48.598;8.870;2022-12-18T00:19:23;-9.50;99.60
23335;DHT22;11839;48.598;8.870;2022-12-18T00:21:50;-9.50;99.80
23335;DHT22;11839;48.598;8.870;2022-12-18T00:24:17;-9.60;99.90
23335;DHT22;11839;48.598;8.870;2022-12-18T00:26:44;-9.80;99.60
23335;DHT22;11839;48.598;8.870;2022-12-18T00:29:13;-9.50;99.90
23335;DHT22;11839;48.598;8.870;2022-12-18T00:31:41;-9.60;99.80
23335;DHT22;11839;48.598;8.870;2022-12-18T00:34:11;-9.50;99.90
23335;DHT22;11839;48.598;8.870;2022-12-18T00:36:38;-9.40;99.90
23335;DHT22;11839;48.598;8.870;2022-12-18T00:39:05;-9.60;99.90
23335;DHT22;11839;48.598;8.870;2022-12-18T00:41:32;-9.60;99.90
23335;DHT22;11839;48.598;8.870;2022-12-18T00:44:18;-9.50;99.90
23335;DHT22;11839;48.598;8.870;2022-12-18T00:46:46;-9.40;99.90
23335;DHT22;11839;48.598;8.870;2022-12-18T00:49:15;-9.10;99.90
23335;DHT22;11839;48.598;8.870;2022-12-18T00:51:43;-9.20;99.90
23335;DHT22;11839;48.598;8.870;2022-12-18T00:54:10;-9.10;99.90
23335;DHT22;11839;48.598;8.870;2022-12-18T00:56:37;-9.00;99.70
23335;DHT22;11839;48.598;8.870;2022-12-18T00:59:05;-8.90;99.40
23335;DHT22;11839;48.598;8.870;2022-12-18T01:01:32;-8.80;99.10
23335;DHT22;11839;48.598;8.870;2022-12-18T01:04:00;-9.00;98.40
23335;DHT22;11839;48.598;8.870;2022-12-18T01:06:28;-9.10;98.60
23335;DHT22;11839;48.598;8.870;2022-12-18T01:08:55;-8.90;98.50
23335;DHT22;11839;48.598;8.870;2022-12-18T01:11:22;-9.30;97.30
23335;DHT22;11839;48.598;8.870;2022-12-18T01:13:51;-9.40;98.30
23335;DHT22;11839;48.598;8.870;2022-12-18T01:16:18;-9.70;97.20
23335;DHT22;11839;48.598;8.870;2022-12-18T01:18:45;-9.90;97.60
23335;DHT22;11839;48.598;8.870;2022-12-18T01:21:15;-9.80;98.00
23335;DHT22;11839;48.598;8.870;2022-12-18T01:23:43;-9.30;99.00
23335;DHT22;11839;48.598;8.870;2022-12-18T01:26:12;-8.80;99.60
23335;DHT22;11839;48.598;8.870;2022-12-18T01:28:39;-8.90;97.80
23335;DHT22;11839;48.598;8.870;2022-12-18T01:31:16;-9.40;99.10
23335;DHT22;11839;48.598;8.870;2022-12-18T01:33:43;-9.80;99.40
23335;DHT22;11839;48.598;8.870;2022-12-18T01:36:21;-9.90;99.90
23335;DHT22;11839;48.598;8.870;2022-12-18T01:38:50;-10.00;99.90
23335;DHT22;11839;48.598;8.870;2022-12-18T01:41:20;-10.30;99.90
23335;DHT22;11839;48.598;8.870;2022-12-18T01:43:50;-10.20;99.90
23335;DHT22;11839;48.598;8.870;2022-12-18T01:46:19;-10.10;99.90
23335;DHT22;11839;48.598;8.870;2022-12-18T01:48:47;-10.10;99.90
23335;DHT22;11839;48.598;8.870;2022-12-18T01:51:15;-10.10;99.90
23335;DHT22;11839;48.598;8.870;2022-12-18T01:53:43;-10.00;99.90
23335;DHT22;11839;48.598;8.870;2022-12-18T01:56:15;-10.00;99.90
23335;DHT22;11839;48.598;8.870;2022-12-18T01:58:48;-10.00;99.90
23335;DHT22;11839;48.598;8.870;2022-12-18T02:01:18;-9.60;99.90
23335;DHT22;11839;48.598;8.870;2022-12-18T02:03:46;-9.50;99.90
23335;DHT22;11839;48.598;8.870;2022-12-18T02:06:15;-9.40;99.90
23335;DHT22;11839;48.598;8.870;2022-12-18T02:08:51;-9.10;99.90
23335;DHT22;11839;48.598;8.870;2022-12-18T02:11:29;-9.20;99.90
23335;DHT22;11839;48.598;8.870;2022-12-18T02:14:04;-9.50;99.90
23335;DHT22;11839;48.598;8.870;2022-12-18T02:16:38;-9.60;99.90
23335;DHT22;11839;48.598;8.870;2022-12-18T02:19:11;-9.50;99.90
23335;DHT22;11839;48.598;8.870;2022-12-18T02:21:46;-8.90;99.90
23335;DHT22;11839;48.598;8.870;2022-12-18T02:24:24;-8.70;99.90
23335;DHT22;11839;48.598;8.870;2022-12-18T02:26:56;-8.70;99.90
23335;DHT22;11839;48.598;8.870;2022-12-18T02:29:27;-8.80;99.90
23335;DHT22;11839;48.598;8.870;2022-12-18T02:31:57;-8.80;99.90
23335;DHT22;11839;48.598;8.870;2022-12-18T02:34:28;-8.50;99.90
23335;DHT22;11839;48.598;8.870;2022-12-18T02:36:56;-8.30;99.90
23335;DHT22;11839;48.598;8.870;2022-12-18T02:39:25;-8.60;99.90
23335;DHT22;11839;48.598;8.870;2022-12-18T02:41:54;-8.70;99.90
23335;DHT22;11839;48.598;8.870;2022-12-18T02:44:21;-8.50;99.90
23335;DHT22;11839;48.598;8.870;2022-12-18T02:46:50;-8.70;99.90
23335;DHT22;11839;48.598;8.870;2022-12-18T02:49:27;-8.60;99.90
23335;DHT22;11839;48.598;8.870;2022-12-18T02:52:04;-8.70;99.90
23335;DHT22;11839;48.598;8.870;2022-12-18T02:54:55;-8.60;99.90
23335;DHT22;11839;48.598;8.870;2022-12-18T02:57:34;-8.60;99.90
23335;DHT22;11839;48.598;8.870;2022-12-18T03:00:06;-8.80;99.90
23335;DHT22;11839;48.598;8.870;2022-12-18T03:02:39;-8.90;99.90
23335;DHT22;11839;48.598;8.870;2022-12-18T03:05:11;-8.70;99.90
23335;DHT22;11839;48.598;8.870;2022-12-18T03:07:43;-8.70;99.90
23335;DHT22;11839;48.598;8.870;2022-12-18T03:10:14;-8.50;99.90
23335;DHT22;11839;48.598;8.870;2022-12-18T03:12:49;-8.60;99.90
23335;DHT22;11839;48.598;8.870;2022-12-18T03:15:19;-8.90;99.90
23335;DHT22;11839;48.598;8.870;2022-12-18T03:17:52;-8.80;99.90
23335;DHT22;11839;48.598;8.870;2022-12-18T03:20:21;-8.70;99.90
23335;DHT22;11839;48.598;8.870;2022-12-18T03:22:52;-8.70;99.90
23335;DHT22;11839;48.598;8.870;2022-12-18T03:25:20;-8.70;99.90
23335;DHT22;11839;48.598;8.870;2022-12-18T03:27:54;-8.50;99.90
23335;DHT22;11839;48.598;8.870;2022-12-18T03:30:23;-8.60;99.90
23335;DHT22;11839;48.598;8.870;2022-12-18T03:32:53;-8.30;99.90
23335;DHT22;11839;48.598;8.870;2022-12-18T03:35:31;-8.30;99.90
23335;DHT22;11839;48.598;8.870;2022-12-18T03:37:58;-8.30;99.90
23335;DHT22;11839;48.598;8.870;2022-12-18T03:40:29;-7.80;99.90
23335;DHT22;11839;48.598;8.870;2022-12-18T03:43:03;-7.60;99.90
23335;DHT22;11839;48.598;8.870;2022-12-18T03:45:36;-7.60;99.90
23335;DHT22;11839;48.598;8.870;2022-12-18T03:48:07;-7.20;99.90
23335;DHT22;11839;48.598;8.870;2022-12-18T03:50:42;-7.10;99.90
23335;DHT22;11839;48.598;8.870;2022-12-18T03:53:18;-7.10;99.90
23335;DHT22;11839;48.598;8.870;2022-12-18T03:55:48;-6.90;99.90
23335;DHT22;11839;48.598;8.870;2022-12-18T03:58:19;-7.00;99.90
23335;DHT22;11839;48.598;8.870;2022-12-18T04:00:48;-6.80;99.90
23335;DHT22;11839;48.598;8.870;2022-12-18T04:03:18;-6.50;99.90
23335;DHT22;11839;48.598;8.870;2022-12-18T04:05:47;-6.40;99.50
23335;DHT22;11839;48.598;8.870;2022-12-18T04:08:16;-6.40;99.90
23335;DHT22;11839;48.598;8.870;2022-12-18T04:10:43;-6.40;99.70
23335;DHT22;11839;48.598;8.870;2022-12-18T04:13:10;-6.60;99.90
23335;DHT22;11839;48.598;8.870;2022-12-18T04:15:38;-6.60;99.90
23335;DHT22;11839;48.598;8.870;2022-12-18T04:18:06;-6.80;99.90
23335;DHT22;11839;48.598;8.870;2022-12-18T04:20:32;-6.80;99.90
23335;DHT22;11839;48.598;8.870;2022-12-18T04:22:59;-7.00;99.90
23335;DHT22;11839;48.598;8.870;2022-12-18T04:25:26;-6.70;99.90
23335;DHT22;11839;48.598;8.870;2022-12-18T04:27:53;-6.40;99.90
23335;DHT22;11839;48.598;8.870;2022-12-18T04:30:20;-6.50;99.90
23335;DHT22;11839;48.598;8.870;2022-12-18T04:32:48;-6.20;99.90
23335;DHT22;11839;48.598;8.870;2022-12-18T04:35:15;-6.00;99.90
23335;DHT22;11839;48.598;8.870;2022-12-18T04:37:43;-5.80;99.90
23335;DHT22;11839;48.598;8.870;2022-12-18T04:40:11;-5.90;99.90
23335;DHT22;11839;48.598;8.870;2022-12-18T04:42:39;-5.80;99.80
23335;DHT22;11839;48.598;8.870;2022-12-18T04:45:07;-6.60;99.10
23335;DHT22;11839;48.598;8.870;2022-12-18T04:47:34;-6.60;99.90
23335;DHT22;11839;48.598;8.870;2022-12-18T04:50:02;-6.70;99.90
23335;DHT22;11839;48.598;8.870;2022-12-18T04:52:29;-6.90;99.90
23335;DHT22;11839;48.598;8.870;2022-12-18T04:54:56;-6.90;99.90
23335;DHT22;11839;48.598;8.870;2022-12-18T04:57:23;-6.40;99.90
23335;DHT22;11839;48.598;8.870;2022-12-18T04:59:50;-6.00;99.90
23335;DHT22;11839;48.598;8.870;2022-12-18T05:02:17;-6.20;99.90
23335;DHT22;11839;48.598;8.870;2022-12-18T05:04:43;-6.40;99.90
23335;DHT22;11839;48.598;8.870;2022-12-18T05:07:12;-6.50;99.90
23335;DHT22;11839;48.598;8.870;2022-12-18T05:09:38;-6.60;99.90
23335;DHT22;11839;48.598;8.870;2022-12-18T05:12:05;-6.50;99.90
23335;DHT22;11839;48.598;8.870;2022-12-18T05:14:32;-6.40;99.90
23335;DHT22;11839;48.598;8.870;2022-12-18T05:16:59;-6.60;99.90
23335;DHT22;11839;48.598;8.870;2022-12-18T05:19:26;-6.50;99.90
23335;DHT22;11839;48.598;8.870;2022-12-18T05:21:52;-6.90;99.90
23335;DHT22;11839;48.598;8.870;2022-12-18T05:24:21;-7.10;99.90
23335;DHT22;11839;48.598;8.870;2022-12-18T05:26:48;-7.10;99.90
23335;DHT22;11839;48.598;8.870;2022-12-18T05:29:15;-7.40;99.90
23335;DHT22;11839;48.598;8.870;2022-12-18T05:31:42;-7.40;99.90
23335;DHT22;11839;48.598;8.870;2022-12-18T05:34:08;-7.30;99.90
23335;DHT22;11839;48.598;8.870;2022-12-18T05:36:35;-7.30;99.90
23335;DHT22;11839;48.598;8.870;2022-12-18T05:39:02;-7.40;99.90
23335;DHT22;11839;48.598;8.870;2022-12-18T05:41:30;-7.30;99.90
23335;DHT22;11839;48.598;8.870;2022-12-18T05:43:58;-7.40;99.90
23335;DHT22;11839;48.598;8.870;2022-12-18T05:46:25;-7.30;99.90
23335;DHT22;11839;48.598;8.870;2022-12-18T05:48:52;-7.10;99.90
23335;DHT22;11839;48.598;8.870;2022-12-18T05:51:21;-6.90;99.90
23335;DHT22;11839;48.598;8.870;2022-12-18T05:53:47;-6.80;99.90
23335;DHT22;11839;48.598;8.870;2022-12-18T05:56:16;-6.70;99.90
23335;DHT22;11839;48.598;8.870;2022-12-18T05:58:46;-6.60;99.90
23335;DHT22;11839;48.598;8.870;2022-12-18T06:01:15;-6.70;99.90
23335;DHT22;11839;48.598;8.870;2022-12-18T06:03:43;-6.90;99.90
23335;DHT22;11839;48.598;8.870;2022-12-18T06:06:14;-6.80;99.90
23335;DHT22;11839;48.598;8.870;2022-12-18T06:08:41;-6.70;99.90
23335;DHT22;11839;48.598;8.870;2022-12-18T06:11:07;-6.60;99.90
23335;DHT22;11839;48.598;8.870;2022-12-18T06:13:34;-6.50;99.90
23335;DHT22;11839;48.598;8.870;2022-12-18T06:16:03;-6.80;99.90
23335;DHT22;11839;48.598;8.870;2022-12-18T06:18:30;-7.00;99.90
23335;DHT22;11839;48.598;8.870;2022-12-18T06:20:58;-6.90;99.90
23335;DHT22;11839;48.598;8.870;2022-12-18T06:23:25;-6.80;99.90
23335;DHT22;11839;48.598;8.870;2022-12-18T06:25:52;-6.90;99.90
23335;DHT22;11839;48.598;8.870;2022-12-18T06:28:19;-6.90;99.90
23335;DHT22;11839;48.598;8.870;2022-12-18T06:30:46;-6.80;99.90
23335;DHT22;11839;48.598;8.870;2022-12-18T06:33:16;-6.60;99.90
23335;DHT22;11839;48.598;8.870;2022-12-18T06:35:42;-6.70;99.90
23335;DHT22;11839;48.598;8.870;2022-12-18T06:38:09;-6.80;99.90
23335;DHT22;11839;48.598;8.870;2022-12-18T06:40:37;-6.90;99.90
23335;DHT22;11839;48.598;8.870;2022-12-18T06:43:04;-7.10;99.90
23335;DHT22;11839;48.598;8.870;2022-12-18T06:45:31;-7.30;99.90
23335;DHT22;11839;48.598;8.870;2022-12-18T06:47:58;-7.50;99.90
23335;DHT22;11839;48.598;8.870;2022-12-18T06:50:26;-7.40;99.90
23335;DHT22;11839;48.598;8.870;2022-12-18T06:52:53;-7.40;99.90
23335;DHT22;11839;48.598;8.870;2022-12-18T06:55:20;-7.60;99.90
23335;DHT22;11839;48.598;8.870;2022-12-18T06:57:46;-7.60;99.90
23335;DHT22;11839;48.598;8.870;2022-12-18T07:00:14;-7.40;99.90
23335;DHT22;11839;48.598;8.870;2022-12-18T07:02:41;-7.40;99.90
23335;DHT22;11839;48.598;8.870;2022-12-18T07:05:08;-7.30;99.90
23335;DHT22;11839;48.598;8.870;2022-12-18T07:07:36;-7.20;99.90
23335;DHT22;11839;48.598;8.870;2022-12-18T07:10:04;-7.50;99.90
23335;DHT22;11839;48.598;8.870;2022-12-18T07:12:31;-7.70;99.90
23335;DHT22;11839;48.598;8.870;2022-12-18T07:14:58;-7.80;99.90
23335;DHT22;11839;48.598;8.870;2022-12-18T07:17:24;-7.30;99.90
23335;DHT22;11839;48.598;8.870;2022-12-18T07:19:51;-7.10;99.90
23335;DHT22;11839;48.598;8.870;2022-12-18T07:22:18;-7.30;99.90
23335;DHT22;11839;48.598;8.870;2022-12-18T07:24:46;-7.80;99.90
23335;DHT22;11839;48.598;8.870;2022-12-18T07:27:13;-7.90;99.90
23335;DHT22;11839;48.598;8.870;2022-12-18T07:29:40;-7.90;99.90
23335;DHT22;11839;48.598;8.870;2022-12-18T07:32:06;-7.70;99.90
23335;DHT22;11839;48.598;8.870;2022-12-18T07:34:33;-7.70;99.90
23335;DHT22;11839;48.598;8.870;2022-12-18T07:37:00;-7.80;99.90
23335;DHT22;11839;48.598;8.870;2022-12-18T07:39:27;-8.10;99.90
23335;DHT22;11839;48.598;8.870;2022-12-18T07:41:55;-8.10;99.90
23335;DHT22;11839;48.598;8.870;2022-12-18T07:44:39;-7.80;99.90
23335;DHT22;11839;48.598;8.870;2022-12-18T07:47:06;-7.90;99.90
23335;DHT22;11839;48.598;8.870;2022-12-18T07:49:33;-7.90;99.90
23335;DHT22;11839;48.598;8.870;2022-12-18T07:52:00;-8.00;99.90
23335;DHT22;11839;48.598;8.870;2022-12-18T07:54:27;-8.30;99.90
23335;DHT22;11839;48.598;8.870;2022-12-18T07:56:56;-8.10;99.90
23335;DHT22;11839;48.598;8.870;2022-12-18T07:59:23;-8.00;99.90
23335;DHT22;11839;48.598;8.870;2022-12-18T08:01:49;-8.00;99.90
23335;DHT22;11839;48.598;8.870;2022-12-18T08:04:16;-8.10;99.90
23335;DHT22;11839;48.598;8.870;2022-12-18T08:06:43;-8.10;99.90
23335;DHT22;11839;48.598;8.870;2022-12-18T08:09:10;-8.00;99.90
23335;DHT22;11839;48.598;8.870;2022-12-18T08:11:37;-7.60;99.90
23335;DHT22;11839;48.598;8.870;2022-12-18T08:14:05;-7.90;99.90
23335;DHT22;11839;48.598;8.870;2022-12-18T08:16:32;-7.90;99.90
23335;DHT22;11839;48.598;8.870;2022-12-18T08:18:59;-7.90;99.90
23335;DHT22;11839;48.598;8.870;2022-12-18T08:21:27;-8.00;99.90
23335;DHT22;11839;48.598;8.870;2022-12-18T08:23:56;-7.90;99.90
23335;DHT22;11839;48.598;8.870;2022-12-18T08:26:24;-7.90;99.90
23335;DHT22;11839;48.598;8.870;2022-12-18T08:28:53;-7.40;99.90
23335;DHT22;11839;48.598;8.870;2022-12-18T08:31:22;-7.50;99.90
23335;DHT22;11839;48.598;8.870;2022-12-18T08:33:50;-7.70;99.90
23335;DHT22;11839;48.598;8.870;2022-12-18T08:36:18;-7.40;99.90
23335;DHT22;11839;48.598;8.870;2022-12-18T08:38:45;-7.10;99.90
23335;DHT22;11839;48.598;8.870;2022-12-18T08:41:13;-6.90;99.90
23335;DHT22;11839;48.598;8.870;2022-12-18T08:43:40;-7.30;99.90
23335;DHT22;11839;48.598;8.870;2022-12-18T08:46:30;-7.30;99.90
23335;DHT22;11839;48.598;8.870;2022-12-18T08:48:57;-7.40;99.90
23335;DHT22;11839;48.598;8.870;2022-12-18T08:51:24;-8.10;99.90
23335;DHT22;11839;48.598;8.870;2022-12-18T08:53:51;-8.40;99.90
23335;DHT22;11839;48.598;8.870;2022-12-18T08:56:18;-8.50;99.90
23335;DHT22;11839;48.598;8.870;2022-12-18T08:58:44;-8.50;99.90
23335;DHT22;11839;48.598;8.870;2022-12-18T09:01:13;-8.30;99.90
23335;DHT22;11839;48.598;8.870;2022-12-18T09:03:41;-8.00;99.90
23335;DHT22;11839;48.598;8.870;2022-12-18T09:06:08;-7.50;99.90
23335;DHT22;11839;48.598;8.870;2022-12-18T09:08:35;-7.50;99.90
23335;DHT22;11839;48.598;8.870;2022-12-18T09:11:03;-7.70;99.90
23335;DHT22;11839;48.598;8.870;2022-12-18T09:13:30;-7.60;99.90
23335;DHT22;11839;48.598;8.870;2022-12-18T09:15:56;-7.60;99.90
23335;DHT22;11839;48.598;8.870;2022-12-18T09:18:23;-7.60;99.90
23335;DHT22;11839;48.598;8.870;2022-12-18T09:20:52;-7.40;99.90
23335;DHT22;11839;48.598;8.870;2022-12-18T09:23:19;-7.10;99.90
23335;DHT22;11839;48.598;8.870;2022-12-18T09:25:46;-7.50;99.90
23335;DHT22;11839;48.598;8.870;2022-12-18T09:28:14;-7.30;99.90
23335;DHT22;11839;48.598;8.870;2022-12-18T09:30:48;-7.40;99.90
23335;DHT22;11839;48.598;8.870;2022-12-18T09:33:15;-7.50;99.90
23335;DHT22;11839;48.598;8.870;2022-12-18T09:35:44;-7.60;99.90
23335;DHT22;11839;48.598;8.870;2022-12-18T09:38:14;-7.60;99.90
23335;DHT22;11839;48.598;8.870;2022-12-18T09:40:44;-6.90;99.90
23335;DHT22;11839;48.598;8.870;2022-12-18T09:43:15;-6.50;99.90
23335;DHT22;11839;48.598;8.870;2022-12-18T09:45:46;-6.10;99.70
23335;DHT22;11839;48.598;8.870;2022-12-18T09:48:18;-5.80;99.90
23335;DHT22;11839;48.598;8.870;2022-12-18T09:50:46;-5.50;99.30
23335;DHT22;11839;48.598;8.870;2022-12-18T09:53:19;-5.10;99.40
23335;DHT22;11839;48.598;8.870;2022-12-18T09:55:48;-5.20;98.80
23335;DHT22;11839;48.598;8.870;2022-12-18T09:58:19;-5.30;99.10
23335;DHT22;11839;48.598;8.870;2022-12-18T10:00:46;-5.00;99.30
23335;DHT22;11839;48.598;8.870;2022-12-18T10:03:15;-4.90;98.60
23335;DHT22;11839;48.598;8.870;2022-12-18T10:05:50;-5.00;98.70
23335;DHT22;11839;48.598;8.870;2022-12-18T10:08:27;-4.60;98.90
23335;DHT22;11839;48.598;8.870;2022-12-18T10:11:00;-4.10;98.90
23335;DHT22;11839;48.598;8.870;2022-12-18T10:13:32;-4.20;98.60
23335;DHT22;11839;48.598;8.870;2022-12-18T10:16:09;-4.40;99.20
23335;DHT22;11839;48.598;8.870;2022-12-18T10:18:57;-4.50;99.60
23335;DHT22;11839;48.598;8.870;2022-12-18T10:21:30;-4.30;99.90
23335;DHT22;11839;48.598;8.870;2022-12-18T10:24:05;-4.50;99.60
23335;DHT22;11839;48.598;8.870;2022-12-18T10:26:36;-5.00;99.90
23335;DHT22;11839;48.598;8.870;2022-12-18T10:29:06;-4.60;99.90
23335;DHT22;11839;48.598;8.870;2022-12-18T10:31:35;-4.60;99.90
23335;DHT22;11839;48.598;8.870;2022-12-18T10:34:01;-4.70;99.90
23335;DHT22;11839;48.598;8.870;2022-12-18T10:36:29;-4.70;99.90
23335;DHT22;11839;48.598;8.870;2022-12-18T10:39:16;-4.50;99.90
23335;DHT22;11839;48.598;8.870;2022-12-18T10:41:43;-4.40;99.90
23335;DHT22;11839;48.598;8.870;2022-12-18T10:44:12;-4.60;99.90
23335;DHT22;11839;48.598;8.870;2022-12-18T10:46:42;-4.80;99.90
23335;DHT22;11839;48.598;8.870;2022-12-18T10:49:19;-4.70;99.90
23335;DHT22;11839;48.598;8.870;2022-12-18T10:51:47;-4.90;99.90
23335;DHT22;11839;48.598;8.870;2022-12-18T10:54:18;-4.70;99.90
23335;DHT22;11839;48.598;8.870;2022-12-18T10:56:46;-4.40;99.90
23335;DHT22;11839;48.598;8.870;2022-12-18T10:59:14;-4.20;99.90
23335;DHT22;11839;48.598;8.870;2022-12-18T11:01:50;-4.20;99.90
23335;DHT22;11839;48.598;8.870;2022-12-18T11:04:20;-3.90;99.90
23335;DHT22;11839;48.598;8.870;2022-12-18T11:06:54;-3.70;99.90
23335;DHT22;11839;48.598;8.870;2022-12-18T11:09:25;-3.80;99.90
23335;DHT22;11839;48.598;8.870;2022-12-18T11:11:53;-3.70;99.90
23335;DHT22;11839;48.598;8.870;2022-12-18T11:14:23;-3.60;99.90
23335;DHT22;11839;48.598;8.870;2022-12-18T11:16:51;-3.50;99.90
23335;DHT22;11839;48.598;8.870;2022-12-18T11:19:27;-3.30;99.90
23335;DHT22;11839;48.598;8.870;2022-12-18T11:21:55;-2.70;99.90
23335;DHT22;11839;48.598;8.870;2022-12-18T11:24:27;-2.60;99.90
23335;DHT22;11839;48.598;8.870;2022-12-18T11:26:55;-3.00;99.90
23335;DHT22;11839;48.598;8.870;2022-12-18T11:29:27;-3.10;99.90
23335;DHT22;11839;48.598;8.870;2022-12-18T11:32:27;-3.00;99.90
23335;DHT22;11839;48.598;8.870;2022-12-18T11:35:01;-2.80;99.90
23335;DHT22;11839;48.598;8.870;2022-12-18T11:37:29;-2.40;99.90
23335;DHT22;11839;48.598;8.870;2022-12-18T11:40:00;-2.40;99.90
23335;DHT22;11839;48.598;8.870;2022-12-18T11:42:34;-2.60;99.90
23335;DHT22;11839;48.598;8.870;2022-12-18T11:45:20;-2.80;99.90
23335;DHT22;11839;48.598;8.870;2022-12-18T11:47:54;-2.20;99.90
23335;DHT22;11839;48.598;8.870;2022-12-18T11:50:24;-1.50;99.90
23335;DHT22;11839;48.598;8.870;2022-12-18T11:52:52;-1.80;99.90
23335;DHT22;11839;48.598;8.870;2022-12-18T11:55:28;-1.70;99.90
23335;DHT22;11839;48.598;8.870;2022-12-18T11:58:03;-1.60;99.90
23335;DHT22;11839;48.598;8.870;2022-12-18T12:00:36;-1.00;99.90
23335;DHT22;11839;48.598;8.870;2022-12-18T12:03:39;-0.70;99.90
23335;DHT22;11839;48.598;8.870;2022-12-18T12:06:17;-0.80;99.50
23335;DHT22;11839;48.598;8.870;2022-12-18T12:09:00;-0.60;99.90
23335;DHT22;11839;48.598;8.870;2022-12-18T12:11:39;-0.30;99.50
23335;DHT22;11839;48.598;8.870;2022-12-18T12:14:37;-0.70;99.30
23335;DHT22;11839;48.598;8.870;2022-12-18T12:17:11;-1.40;99.90
23335;DHT22;11839;48.598;8.870;2022-12-18T12:19:46;-1.50;99.90
23335;DHT22;11839;48.598;8.870;2022-12-18T12:22:23;-1.60;99.90
23335;DHT22;11839;48.598;8.870;2022-12-18T12:25:00;-1.50;99.90
23335;DHT22;11839;48.598;8.870;2022-12-18T12:27:39;-1.20;99.90
23335;DHT22;11839;48.598;8.870;2022-12-18T12:30:18;-1.40;99.90
23335;DHT22;11839;48.598;8.870;2022-12-18T12:32:57;-1.50;99.90
23335;DHT22;11839;48.598;8.870;2022-12-18T12:35:35;-1.50;99.90
23335;DHT22;11839;48.598;8.870;2022-12-18T12:38:10;-1.40;99.90
23335;DHT22;11839;48.598;8.870;2022-12-18T12:40:44;-1.10;99.90
23335;DHT22;11839;48.598;8.870;2022-12-18T12:43:22;-0.70;99.90
23335;DHT22;11839;48.598;8.870;2022-12-18T12:45:54;-0.60;99.90
23335;DHT22;11839;48.598;8.870;2022-12-18T12:48:32;-0.20;99.90
23335;DHT22;11839;48.598;8.870;2022-12-18T12:51:01;-0.10;99.90
23335;DHT22;11839;48.598;8.870;2022-12-18T12:53:32;-0.50;99.70
23335;DHT22;11839;48.598;8.870;2022-12-18T12:56:01;-0.30;99.90
23335;DHT22;11839;48.598;8.870;2022-12-18T12:58:34;-0.20;99.80
23335;DHT22;11839;48.598;8.870;2022-12-18T13:01:12;-0.30;99.60
23335;DHT22;11839;48.598;8.870;2022-12-18T13:03:46;0.10;99.80
23335;DHT22;11839;48.598;8.870;2022-12-18T13:06:23;0.20;99.20
23335;DHT22;11839;48.598;8.870;2022-12-18T13:08:54;0.20;99.60
23335;DHT22;11839;48.598;8.870;2022-12-18T13:11:35;0.30;99.70
23335;DHT22;11839;48.598;8.870;2022-12-18T13:14:24;0.30;99.60
23335;DHT22;11839;48.598;8.870;2022-12-18T13:20:09;0.50;99.00
23335;DHT22;11839;48.598;8.870;2022-12-18T13:22:37;0.80;99.90
23335;DHT22;11839;48.598;8.870;2022-12-18T13:25:26;0.90;99.90
23335;DHT22;11839;48.598;8.870;2022-12-18T13:28:14;0.90;99.30
23335;DHT22;11839;48.598;8.870;2022-12-18T13:30:45;1.10;99.60
23335;DHT22;11839;48.598;8.870;2022-12-18T13:36:28;1.00;99.20
23335;DHT22;11839;48.598;8.870;2022-12-18T13:39:23;0.80;99.30
23335;DHT22;11839;48.598;8.870;2022-12-18T13:41:52;0.80;99.80
23335;DHT22;11839;48.598;8.870;2022-12-18T13:44:28;0.80;99.70
23335;DHT22;11839;48.598;8.870;2022-12-18T13:46:59;0.90;99.50
23335;DHT22;11839;48.598;8.870;2022-12-18T13:49:30;0.90;99.10
23335;DHT22;11839;48.598;8.870;2022-12-18T13:52:02;0.70;99.40
23335;DHT22;11839;48.598;8.870;2022-12-18T13:54:40;0.40;99.20
23335;DHT22;11839;48.598;8.870;2022-12-18T13:57:26;-0.10;99.20
23335;DHT22;11839;48.598;8.870;2022-12-18T13:59:53;-0.50;99.90
23335;DHT22;11839;48.598;8.870;2022-12-18T14:02:23;-0.50;99.90
23335;DHT22;11839;48.598;8.870;2022-12-18T14:04:51;-0.50;99.90
23335;DHT22;11839;48.598;8.870;2022-12-18T14:07:19;-0.30;99.80
23335;DHT22;11839;48.598;8.870;2022-12-18T14:09:50;-0.10;99.70
23335;DHT22;11839;48.598;8.870;2022-12-18T14:12:19;0.00;99.90
23335;DHT22;11839;48.598;8.870;2022-12-18T14:15:09;0.20;99.70
23335;DHT22;11839;48.598;8.870;2022-12-18T14:17:43;0.40;99.80
23335;DHT22;11839;48.598;8.870;2022-12-18T14:20:13;0.30;99.00
23335;DHT22;11839;48.598;8.870;2022-12-18T14:22:43;0.20;98.50
23335;DHT22;11839;48.598;8.870;2022-12-18T14:25:18;-0.10;98.60
23335;DHT22;11839;48.598;8.870;2022-12-18T14:27:47;-0.20;99.20
23335;DHT22;11839;48.598;8.870;2022-12-18T14:30:25;0.10;99.40
23335;DHT22;11839;48.598;8.870;2022-12-18T14:33:01;0.20;99.20
23335;DHT22;11839;48.598;8.870;2022-12-18T14:35:28;0.00;99.30
23335;DHT22;11839;48.598;8.870;2022-12-18T14:38:18;0.20;99.80
23335;DHT22;11839;48.598;8.870;2022-12-18T14:40:46;0.20;99.20
23335;DHT22;11839;48.598;8.870;2022-12-18T14:43:13;-0.10;99.50
23335;DHT22;11839;48.598;8.870;2022-12-18T14:45:41;0.20;99.80
23335;DHT22;11839;48.598;8.870;2022-12-18T14:48:16;0.10;99.30
23335;DHT22;11839;48.598;8.870;2022-12-18T14:50:44;-0.20;99.00
23335;DHT22;11839;48.598;8.870;2022-12-18T14:53:27;-0.30;99.50
23335;DHT22;11839;48.598;8.870;2022-12-18T14:55:55;-0.10;99.90
23335;DHT22;11839;48.598;8.870;2022-12-18T14:58:22;0.00;99.90
23335;DHT22;11839;48.598;8.870;2022-12-18T15:00:49;0.00;99.90
23335;DHT22;11839;48.598;8.870;2022-12-18T15:03:20;0.00;99.90
23335;DHT22;11839;48.598;8.870;2022-12-18T15:05:47;0.00;99.90
23335;DHT22;11839;48.598;8.870;2022-12-18T15:08:34;-0.10;99.90
23335;DHT22;11839;48.598;8.870;2022-12-18T15:11:01;-0.10;99.90
23335;DHT22;11839;48.598;8.870;2022-12-18T15:13:28;-0.20;99.90
23335;DHT22;11839;48.598;8.870;2022-12-18T15:15:56;-0.30;99.90
23335;DHT22;11839;48.598;8.870;2022-12-18T15:18:30;-0.20;99.90
23335;DHT22;11839;48.598;8.870;2022-12-18T15:21:00;-0.40;99.90
23335;DHT22;11839;48.598;8.870;2022-12-18T15:23:36;-0.20;99.90
23335;DHT22;11839;48.598;8.870;2022-12-18T15:26:04;-0.10;99.90
23335;DHT22;11839;48.598;8.870;2022-12-18T15:28:34;-0.10;99.90
23335;DHT22;11839;48.598;8.870;2022-12-18T15:31:17;-0.30;99.90
23335;DHT22;11839;48.598;8.870;2022-12-18T15:34:14;-0.60;99.90
23335;DHT22;11839;48.598;8.870;2022-12-18T15:36:45;-1.00;99.90
23335;DHT22;11839;48.598;8.870;2022-12-18T15:39:12;-1.00;99.90
23335;DHT22;11839;48.598;8.870;2022-12-18T15:41:39;-1.20;99.90
23335;DHT22;11839;48.598;8.870;2022-12-18T15:44:26;-1.40;99.90
23335;DHT22;11839;48.598;8.870;2022-12-18T15:46:52;-1.20;99.90
23335;DHT22;11839;48.598;8.870;2022-12-18T15:49:20;-1.40;99.90
23335;DHT22;11839;48.598;8.870;2022-12-18T15:51:49;-1.40;99.90
23335;DHT22;11839;48.598;8.870;2022-12-18T15:54:18;-1.40;99.90
23335;DHT22;11839;48.598;8.870;2022-12-18T15:57:04;-1.50;99.90
23335;DHT22;11839;48.598;8.870;2022-12-18T15:59:48;-1.60;99.90
23335;DHT22;11839;48.598;8.870;2022-12-18T16:02:16;-1.60;99.90